createdAt,value
2023-04-18T00:00:34.504Z,95570.88
2023-04-18T00:03:04.515Z,95571.25
2023-04-18T00:05:34.396Z,95570.69
2023-04-18T00:08:02.444Z,95576.28
2023-04-18T00:10:30.449Z,95566.97
2023-04-18T00:13:00.470Z,95555.72
2023-04-18T00:15:29.508Z,95556.94
2023-04-18T00:17:57.995Z,95558.06
2023-04-18T00:20:27.477Z,95554.63
2023-04-18T00:22:58.212Z,95558.28
2023-04-18T00:25:27.803Z,95553.81
2023-04-18T00:27:55.928Z,95564.84
2023-04-18T00:30:25.429Z,95552.66
2023-04-18T00:32:53.736Z,95549.59
2023-04-18T00:35:22.147Z,95550.91
2023-04-18T00:37:50.575Z,95549.75
2023-04-18T00:40:20.292Z,95560.09
2023-04-18T00:42:48.227Z,95564.34
2023-04-18T00:45:16.344Z,95559.31
2023-04-18T00:47:44.506Z,95558.66
2023-04-18T00:50:14.242Z,95556.59
2023-04-18T00:52:43.584Z,95560.03
2023-04-18T00:55:12.082Z,95557.41
2023-04-18T00:57:42.167Z,95556.59
2023-04-18T01:00:12.352Z,95552.69
2023-04-18T01:02:41.691Z,95554.78
2023-04-18T01:05:10.902Z,95549.53
2023-04-18T01:07:41.932Z,95557.91
2023-04-18T01:10:12.234Z,95549.63
2023-04-18T01:12:43.475Z,95550.84
2023-04-18T01:15:12.596Z,95547.56
2023-04-18T01:17:40.865Z,95545.69
2023-04-18T01:20:11.148Z,95544.88
2023-04-18T01:22:41.467Z,95534.78
2023-04-18T01:25:12.764Z,95546.16
2023-04-18T01:27:41.334Z,95544.72
2023-04-18T01:30:11.664Z,95536.91
2023-04-18T01:36:29.428Z,95539.91
2023-04-18T01:38:57.616Z,95545.78
2023-04-18T01:41:29.069Z,95539.19
2023-04-18T01:43:57.266Z,95536.22
2023-04-18T01:46:25.606Z,95539.72
2023-04-18T01:48:54.137Z,95545.38
2023-04-18T01:51:23.663Z,95540.28
2023-04-18T01:53:51.832Z,95540.75
2023-04-18T01:56:19.935Z,95534.69
2023-04-18T01:58:49.580Z,95536.59
2023-04-18T02:01:17.623Z,95539.78
2023-04-18T02:03:46.220Z,95541.22
2023-04-18T02:06:14.738Z,95543.44
2023-04-18T02:08:42.857Z,95538.53
2023-04-18T02:11:10.985Z,95539.94
2023-04-18T02:13:39.010Z,95539.72
2023-04-18T02:16:13.624Z,95537.03
2023-04-18T02:18:45.636Z,95536.00
2023-04-18T02:21:15.198Z,95542.28
2023-04-18T02:23:43.429Z,95540.13
2023-04-18T02:26:11.806Z,95537.38
2023-04-18T02:28:40.381Z,95539.34
2023-04-18T02:31:14.516Z,95543.38
2023-04-18T02:33:43.327Z,95539.72
2023-04-18T02:36:11.759Z,95539.28
2023-04-18T02:38:40.472Z,95548.00
2023-04-18T02:41:09.026Z,95539.63
2023-04-18T02:43:37.957Z,95539.84
2023-04-18T02:46:06.358Z,95551.13
2023-04-18T02:48:36.481Z,95535.00
2023-04-18T02:51:06.893Z,95538.25
2023-04-18T02:53:37.907Z,95540.41
2023-04-18T02:56:08.695Z,95535.41
2023-04-18T02:59:09.296Z,95533.56
2023-04-18T03:01:58.630Z,95536.03
2023-04-18T03:04:28.144Z,95534.28
2023-04-18T03:07:00.433Z,95532.53
2023-04-18T03:09:31.247Z,95538.34
2023-04-18T03:12:04.971Z,95529.47
2023-04-18T03:14:33.862Z,95527.66
2023-04-18T03:17:02.322Z,95527.28
2023-04-18T03:19:38.147Z,95531.28
2023-04-18T03:22:10.580Z,95530.22
2023-04-18T03:24:46.063Z,95527.13
2023-04-18T03:27:14.825Z,95526.34
2023-04-18T03:29:45.420Z,95522.78
2023-04-18T03:32:14.161Z,95522.69
2023-04-18T03:34:43.905Z,95532.78
2023-04-18T03:37:12.439Z,95530.22
2023-04-18T03:39:46.417Z,95535.09
2023-04-18T03:42:15.389Z,95531.72
2023-04-18T03:44:44.964Z,95524.88
2023-04-18T03:47:14.875Z,95528.31
2023-04-18T03:49:47.073Z,95526.84
2023-04-18T03:52:16.286Z,95526.84
2023-04-18T03:54:44.831Z,95516.81
2023-04-18T03:57:13.742Z,95522.00
2023-04-18T03:59:46.113Z,95527.81
2023-04-18T04:02:16.051Z,95526.38
2023-04-18T04:04:44.216Z,95531.25
2023-04-18T04:07:14.272Z,95533.28
2023-04-18T04:09:43.727Z,95529.13
2023-04-18T04:12:12.116Z,95526.06
2023-04-18T04:14:40.220Z,95533.34
2023-04-18T04:17:08.416Z,95529.75
2023-04-18T04:19:37.537Z,95533.78
2023-04-18T04:22:17.634Z,95533.66
2023-04-18T04:24:46.950Z,95536.28
2023-04-18T04:27:19.127Z,95532.25
2023-04-18T04:29:49.193Z,95539.91
2023-04-18T04:32:17.959Z,95531.22
2023-04-18T04:34:46.455Z,95533.69
2023-04-18T04:37:15.229Z,95529.47
2023-04-18T04:40:00.816Z,95540.09
2023-04-18T04:42:29.447Z,95542.03
2023-04-18T04:45:05.762Z,95541.41
2023-04-18T04:47:34.002Z,95540.00
2023-04-18T04:50:02.082Z,95536.22
2023-04-18T04:52:33.322Z,95537.59
2023-04-18T04:55:03.128Z,95548.72
2023-04-18T04:57:31.723Z,95537.47
2023-04-18T05:00:00.202Z,95544.19
2023-04-18T05:02:30.105Z,95546.94
2023-04-18T05:04:59.713Z,95550.22
2023-04-18T05:07:28.045Z,95545.59
2023-04-18T05:09:56.095Z,95551.66
2023-04-18T05:12:26.859Z,95552.66
2023-04-18T05:14:55.140Z,95549.47
2023-04-18T05:17:23.451Z,95553.16
2023-04-18T05:19:51.891Z,95556.56
2023-04-18T05:22:20.168Z,95549.72
2023-04-18T05:24:48.199Z,95553.72
2023-04-18T05:27:18.096Z,95548.28
2023-04-18T05:29:49.366Z,95552.88
2023-04-18T05:32:18.373Z,95551.88
2023-04-18T05:34:47.183Z,95555.13
2023-04-18T05:37:15.437Z,95556.38
2023-04-18T05:39:43.730Z,95566.22
2023-04-18T05:42:12.389Z,95557.69
2023-04-18T05:44:40.717Z,95553.47
2023-04-18T05:47:10.436Z,95560.53
2023-04-18T05:49:38.427Z,95559.09
2023-04-18T05:52:06.537Z,95564.50
2023-04-18T05:54:34.952Z,95568.88
2023-04-18T05:57:04.527Z,95574.53
2023-04-18T05:59:33.087Z,95573.72
2023-04-18T06:02:01.319Z,95577.34
2023-04-18T06:04:31.439Z,95580.56
2023-04-18T06:06:59.783Z,95582.56
2023-04-18T06:09:27.818Z,95582.13
2023-04-18T06:11:58.028Z,95584.88
2023-04-18T06:14:26.700Z,95586.41
2023-04-18T06:16:55.418Z,95581.34
2023-04-18T06:19:23.672Z,95584.72
2023-04-18T06:21:53.838Z,95585.34
2023-04-18T06:24:22.161Z,95590.97
2023-04-18T06:26:50.956Z,95593.91
2023-04-18T06:29:20.337Z,95587.97
2023-04-18T06:31:48.749Z,95596.75
2023-04-18T06:34:17.011Z,95600.72
2023-04-18T06:36:45.496Z,95600.88
2023-04-18T06:39:15.283Z,95597.56
2023-04-18T06:41:43.549Z,95601.81
2023-04-18T06:44:11.792Z,95600.59
2023-04-18T06:46:40.005Z,95601.72
2023-04-18T06:49:08.211Z,95597.44
2023-04-18T06:51:36.573Z,95601.19
2023-04-18T06:54:05.135Z,95600.06
2023-04-18T06:56:36.358Z,95601.81
2023-04-18T06:59:06.719Z,95604.38
2023-04-18T07:01:35.536Z,95604.88
2023-04-18T07:04:04.390Z,95597.53
2023-04-18T07:06:32.777Z,95602.41
2023-04-18T07:09:01.817Z,95592.72
2023-04-18T07:11:30.395Z,95595.63
2023-04-18T07:13:59.876Z,95592.69
2023-04-18T07:16:28.453Z,95604.16
2023-04-18T07:18:56.526Z,95593.25
2023-04-18T07:21:25.254Z,95600.44
2023-04-18T07:23:53.359Z,95597.59
2023-04-18T07:26:21.690Z,95598.16
2023-04-18T07:28:50.801Z,95606.94
2023-04-18T07:31:20.596Z,95605.09
2023-04-18T07:33:48.761Z,95602.47
2023-04-18T07:36:17.023Z,95600.38
2023-04-18T07:38:46.200Z,95596.38
2023-04-18T07:41:14.487Z,95599.47
2023-04-18T07:43:44.898Z,95597.88
2023-04-18T07:46:13.111Z,95601.78
2023-04-18T07:48:42.611Z,95591.44
2023-04-18T07:51:10.617Z,95599.53
2023-04-18T07:53:40.871Z,95599.25
2023-04-18T07:56:08.995Z,95591.25
2023-04-18T07:58:37.363Z,95594.88
2023-04-18T08:01:06.142Z,95599.13
2023-04-18T08:03:36.432Z,95592.72
2023-04-18T08:06:08.400Z,95599.94
2023-04-18T08:08:37.742Z,95603.31
2023-04-18T08:11:06.095Z,95605.31
2023-04-18T08:13:34.276Z,95608.84
2023-04-18T08:16:03.007Z,95606.75
2023-04-18T08:18:31.235Z,95609.84
2023-04-18T08:20:59.705Z,95608.34
2023-04-18T08:23:29.231Z,95615.56
2023-04-18T08:25:57.270Z,95611.31
2023-04-18T08:28:25.905Z,95618.94
2023-04-18T08:30:55.509Z,95608.84
2023-04-18T08:33:24.291Z,95626.63
2023-04-18T08:35:53.209Z,95620.97
2023-04-18T08:38:21.572Z,95620.50
2023-04-18T08:40:51.164Z,95625.31
2023-04-18T08:43:19.359Z,95624.41
2023-04-18T08:45:48.423Z,95622.72
2023-04-18T08:48:18.410Z,95632.72
2023-04-18T08:50:47.791Z,95636.47
2023-04-18T08:53:17.752Z,95633.28
2023-04-18T08:55:47.764Z,95638.81
2023-04-18T08:58:23.079Z,95644.75
2023-04-18T09:00:52.889Z,95644.31
2023-04-18T09:03:37.896Z,95644.75
2023-04-18T09:06:12.606Z,95650.50
2023-04-18T09:08:43.440Z,95648.44
2023-04-18T09:11:26.115Z,95650.81
2023-04-18T09:13:58.791Z,95646.63
2023-04-18T09:16:29.464Z,95650.16
2023-04-18T09:19:13.093Z,95645.91
2023-04-18T09:21:44.464Z,95650.97
2023-04-18T09:24:24.139Z,95655.28
2023-04-18T09:26:54.027Z,95653.88
2023-04-18T09:29:42.467Z,95658.66
2023-04-18T09:32:10.690Z,95652.81
2023-04-18T09:34:43.857Z,95654.28
2023-04-18T09:37:14.263Z,95655.78
2023-04-18T09:39:45.096Z,95653.97
2023-04-18T09:42:13.872Z,95657.91
2023-04-18T09:45:03.728Z,95652.66
2023-04-18T09:47:36.541Z,95642.00
2023-04-18T09:50:06.907Z,95648.06
2023-04-18T09:52:37.123Z,95652.44
2023-04-18T09:55:07.733Z,95645.09
2023-04-18T09:57:40.554Z,95644.75
2023-04-18T10:00:17.427Z,95649.34
2023-04-18T10:02:51.260Z,95651.41
2023-04-18T10:05:21.432Z,95645.91
2023-04-18T10:07:52.139Z,95648.06
2023-04-18T10:10:20.838Z,95643.28
2023-04-18T10:12:50.810Z,95648.19
2023-04-18T10:15:24.141Z,95647.03
2023-04-18T10:18:04.249Z,95645.31
2023-04-18T10:20:34.874Z,95646.81
2023-04-18T10:23:36.511Z,95646.22
2023-04-18T10:26:06.053Z,95644.63
2023-04-18T10:28:54.562Z,95641.88
2023-04-18T10:31:25.796Z,95642.34
2023-04-18T10:34:04.674Z,95638.34
2023-04-18T10:36:34.743Z,95639.19
2023-04-18T10:39:21.193Z,95635.44
2023-04-18T10:41:51.424Z,95633.50
2023-04-18T10:44:24.223Z,95639.78
2023-04-18T10:47:32.223Z,95631.06
2023-04-18T10:50:06.757Z,95633.09
2023-04-18T10:52:35.920Z,95635.41
2023-04-18T10:55:25.329Z,95630.06
2023-04-18T10:57:56.392Z,95630.84
2023-04-18T11:00:29.169Z,95623.09
2023-04-18T11:03:00.441Z,95628.16
2023-04-18T11:05:30.596Z,95630.28
2023-04-18T11:07:58.989Z,95626.94
2023-04-18T11:10:29.471Z,95626.56
2023-04-18T11:12:59.456Z,95623.69
2023-04-18T11:15:29.758Z,95618.59
2023-04-18T11:18:01.815Z,95632.53
2023-04-18T11:20:39.607Z,95623.72
2023-04-18T11:23:17.845Z,95624.28
2023-04-18T11:25:47.123Z,95623.47
2023-04-18T11:28:21.168Z,95628.66
2023-04-18T11:30:49.430Z,95626.16
2023-04-18T11:33:17.870Z,95622.56
2023-04-18T11:35:48.421Z,95633.59
2023-04-18T11:38:18.523Z,95630.97
2023-04-18T11:40:50.591Z,95631.94
2023-04-18T11:43:22.102Z,95635.72
2023-04-18T11:45:54.696Z,95639.34
2023-04-18T11:48:23.413Z,95629.31
2023-04-18T11:50:52.962Z,95629.16
2023-04-18T11:53:33.877Z,95627.84
2023-04-18T11:56:03.846Z,95634.44
2023-04-18T11:58:33.333Z,95635.69
2023-04-18T12:01:16.179Z,95633.06
2023-04-18T12:03:45.839Z,95636.63
2023-04-18T12:06:15.976Z,95633.66
2023-04-18T12:08:44.527Z,95637.19
2023-04-18T12:11:21.626Z,95628.19
2023-04-18T12:13:50.001Z,95630.19
2023-04-18T12:16:18.313Z,95633.56
2023-04-18T12:18:49.366Z,95638.41
2023-04-18T12:21:19.713Z,95634.34
2023-04-18T12:23:48.116Z,95637.44
2023-04-18T12:26:19.150Z,95636.19
2023-04-18T12:28:48.076Z,95639.88
2023-04-18T12:31:16.391Z,95637.63
2023-04-18T12:33:44.542Z,95642.31
2023-04-18T12:36:12.667Z,95633.44
2023-04-18T12:38:42.331Z,95635.28
2023-04-18T12:41:11.277Z,95633.97
2023-04-18T12:43:39.656Z,95628.22
2023-04-18T12:46:07.791Z,95634.31
2023-04-18T12:48:36.201Z,95627.91
2023-04-18T12:51:04.464Z,95632.84
2023-04-18T12:53:32.644Z,95627.09
2023-04-18T12:56:02.544Z,95634.06
2023-04-18T12:58:30.648Z,95630.75
2023-04-18T13:00:59.722Z,95629.75
2023-04-18T13:03:28.052Z,95629.44
2023-04-18T13:05:56.551Z,95637.84
2023-04-18T13:08:24.748Z,95640.47
2023-04-18T13:10:52.772Z,95627.19
2023-04-18T13:13:22.326Z,95626.88
2023-04-18T13:15:51.441Z,95631.59
2023-04-18T13:18:20.405Z,95620.78
2023-04-18T13:20:49.809Z,95624.91
2023-04-18T13:23:17.915Z,95631.63
2023-04-18T13:25:46.032Z,95631.69
2023-04-18T13:28:14.506Z,95629.69
2023-04-18T13:30:44.247Z,95626.13
2023-04-18T13:33:12.425Z,95630.28
2023-04-18T13:35:41.828Z,95637.63
2023-04-18T13:38:11.317Z,95632.19
2023-04-18T13:40:39.874Z,95628.09
2023-04-18T13:43:07.785Z,95633.06
2023-04-18T13:45:36.129Z,95636.50
2023-04-18T13:48:06.646Z,95628.50
2023-04-18T13:50:34.966Z,95632.78
2023-04-18T13:53:03.111Z,95627.28
2023-04-18T13:55:31.041Z,95633.16
2023-04-18T13:57:59.440Z,95637.47
2023-04-18T14:00:28.163Z,95635.53
2023-04-18T14:02:57.470Z,95633.69
2023-04-18T14:05:27.108Z,95632.72
2023-04-18T14:08:01.827Z,95643.13
2023-04-18T14:10:30.115Z,95647.84
2023-04-18T14:12:58.496Z,95642.84
2023-04-18T14:15:26.989Z,95633.41
2023-04-18T14:17:55.090Z,95645.09
2023-04-18T14:20:23.354Z,95647.25
2023-04-18T14:22:53.344Z,95655.94
2023-04-18T14:25:22.186Z,95659.50
2023-04-18T14:27:50.285Z,95660.13
2023-04-18T14:30:18.302Z,95653.81
2023-04-18T14:32:46.602Z,95661.22
2023-04-18T14:35:15.045Z,95663.63
2023-04-18T14:37:43.993Z,95657.69
2023-04-18T14:40:14.608Z,95657.00
2023-04-18T14:42:43.015Z,95661.03
2023-04-18T14:45:12.898Z,95657.94
2023-04-18T14:47:42.024Z,95657.69
2023-04-18T14:50:12.849Z,95658.97
2023-04-18T14:52:41.896Z,95659.75
2023-04-18T14:55:11.278Z,95657.81
2023-04-18T14:57:41.323Z,95655.16
2023-04-18T15:00:12.630Z,95652.75
2023-04-18T15:02:41.107Z,95658.03
2023-04-18T15:05:11.476Z,95662.13
2023-04-18T15:07:40.812Z,95660.53
2023-04-18T15:10:12.627Z,95657.69
2023-04-18T15:12:42.792Z,95657.91
2023-04-18T15:15:11.702Z,95659.16
2023-04-18T15:17:40.256Z,95665.13
2023-04-18T15:20:09.726Z,95667.88
2023-04-18T15:22:38.258Z,95666.50
2023-04-18T15:25:07.658Z,95672.69
2023-04-18T15:27:36.309Z,95671.47
2023-04-18T15:30:07.803Z,95676.38
2023-04-18T15:32:37.036Z,95674.09
2023-04-18T15:35:06.683Z,95665.63
2023-04-18T15:37:34.900Z,95675.69
2023-04-18T15:40:03.952Z,95671.91
2023-04-18T15:42:32.283Z,95669.50
2023-04-18T15:45:00.424Z,95668.34
2023-04-18T15:47:30.024Z,95671.53
2023-04-18T15:49:58.088Z,95676.25
2023-04-18T15:52:26.732Z,95679.25
2023-04-18T15:54:55.309Z,95679.25
2023-04-18T15:57:23.697Z,95688.16
2023-04-18T15:59:52.245Z,95680.72
2023-04-18T16:02:20.409Z,95687.69
2023-04-18T16:04:50.355Z,95680.69
2023-04-18T16:07:18.801Z,95691.41
2023-04-18T16:09:46.958Z,95701.47
2023-04-18T16:12:15.387Z,95685.81
2023-04-18T16:14:43.370Z,95685.47
2023-04-18T16:17:11.522Z,95690.88
2023-04-18T16:19:40.956Z,95690.88
2023-04-18T16:22:12.386Z,95694.31
2023-04-18T16:24:42.173Z,95687.22
2023-04-18T16:27:10.454Z,95681.69
2023-04-18T16:29:38.388Z,95676.31
2023-04-18T16:32:08.132Z,95684.13
2023-04-18T16:34:36.920Z,95683.78
2023-04-18T16:37:05.546Z,95682.28
2023-04-18T16:39:34.949Z,95672.69
2023-04-18T16:42:03.599Z,95673.59
2023-04-18T16:44:33.224Z,95677.69
2023-04-18T16:47:01.518Z,95667.53
2023-04-18T16:49:29.669Z,95684.44
2023-04-18T16:51:57.946Z,95671.63
2023-04-18T16:54:26.089Z,95672.66
2023-04-18T16:56:55.886Z,95680.44
2023-04-18T16:59:24.253Z,95676.41
2023-04-18T17:01:52.790Z,95681.00
2023-04-18T17:04:21.060Z,95686.50
2023-04-18T17:06:51.477Z,95677.44
2023-04-18T17:09:20.505Z,95686.41
2023-04-18T17:11:48.728Z,95689.38
2023-04-18T17:14:18.436Z,95686.66
2023-04-18T17:16:46.813Z,95688.84
2023-04-18T17:19:15.424Z,95696.50
2023-04-18T17:21:44.108Z,95695.56
2023-04-18T17:24:12.559Z,95704.03
2023-04-18T17:26:41.001Z,95699.44
2023-04-18T17:29:09.433Z,95699.19
2023-04-18T17:31:39.801Z,95704.91
2023-04-18T17:34:08.341Z,95707.53
2023-04-18T17:36:36.676Z,95698.75
2023-04-18T17:39:06.603Z,95706.63
2023-04-18T17:41:37.973Z,95701.47
2023-04-18T17:44:08.004Z,95700.09
2023-04-18T17:46:36.319Z,95704.75
2023-04-18T17:49:05.883Z,95711.06
2023-04-18T17:51:33.906Z,95709.69
2023-04-18T17:54:02.264Z,95710.47
2023-04-18T17:56:31.601Z,95721.25
2023-04-18T17:58:59.744Z,95715.84
2023-04-18T18:01:30.353Z,95728.06
2023-04-18T18:03:59.000Z,95721.91
2023-04-18T18:06:28.763Z,95719.56
2023-04-18T18:08:56.918Z,95729.25
2023-04-18T18:11:24.902Z,95732.44
2023-04-18T18:13:54.870Z,95725.19
2023-04-18T18:16:24.078Z,95736.78
2023-04-18T18:18:52.721Z,95733.09
2023-04-18T18:21:21.119Z,95739.75
2023-04-18T18:23:51.001Z,95741.78
2023-04-18T18:26:19.000Z,95745.00
2023-04-18T18:28:47.151Z,95747.88
2023-04-18T18:31:15.607Z,95749.56
2023-04-18T18:33:43.776Z,95748.88
2023-04-18T18:36:12.335Z,95750.34
2023-04-18T18:38:40.478Z,95752.31
2023-04-18T18:41:10.060Z,95755.31
2023-04-18T18:43:38.894Z,95757.56
2023-04-18T18:46:06.978Z,95764.66
2023-04-18T18:48:38.013Z,95758.47
2023-04-18T18:51:06.620Z,95763.66
2023-04-18T18:53:34.738Z,95769.91
2023-04-18T18:56:03.015Z,95764.66
2023-04-18T18:58:32.906Z,95768.69
2023-04-18T19:01:02.639Z,95774.38
2023-04-18T19:03:31.922Z,95771.53
2023-04-18T19:06:04.135Z,95774.28
2023-04-18T19:08:32.301Z,95771.91
2023-04-18T19:11:00.605Z,95775.09
2023-04-18T19:13:29.247Z,95767.88
2023-04-18T19:15:59.843Z,95773.50
2023-04-18T19:18:28.434Z,95780.25
2023-04-18T19:20:56.881Z,95775.25
2023-04-18T19:23:30.939Z,95776.25
2023-04-18T19:25:59.329Z,95777.28
2023-04-18T19:28:28.031Z,95788.03
2023-04-18T19:30:56.282Z,95779.56
2023-04-18T19:33:26.621Z,95785.03
2023-04-18T19:35:55.127Z,95776.78
2023-04-18T19:38:23.489Z,95776.94
2023-04-18T19:40:51.793Z,95782.34
2023-04-18T19:43:19.814Z,95780.00
2023-04-18T19:45:48.268Z,95780.44
2023-04-18T19:48:16.495Z,95781.63
2023-04-18T19:50:47.167Z,95779.00
2023-04-18T19:53:15.904Z,95783.97
2023-04-18T19:55:46.497Z,95779.03
2023-04-18T19:58:34.823Z,95780.22
2023-04-18T20:01:06.031Z,95781.59
2023-04-18T20:03:34.843Z,95776.56
2023-04-18T20:06:05.522Z,95782.63
2023-04-18T20:08:34.103Z,95785.03
2023-04-18T20:11:02.484Z,95779.78
2023-04-18T20:13:30.798Z,95786.84
2023-04-18T20:15:59.671Z,95784.75
2023-04-18T20:18:29.369Z,95784.84
2023-04-18T20:20:57.504Z,95781.81
2023-04-18T20:23:27.399Z,95785.47
2023-04-18T20:25:56.197Z,95784.09
2023-04-18T20:28:25.195Z,95775.03
2023-04-18T20:30:53.892Z,95778.03
2023-04-18T20:33:22.334Z,95781.63
2023-04-18T20:35:50.928Z,95783.44
2023-04-18T20:38:20.169Z,95790.50
2023-04-18T20:40:53.036Z,95782.91
2023-04-18T20:43:22.792Z,95784.75
2023-04-18T20:45:52.042Z,95784.59
2023-04-18T20:48:20.961Z,95779.56
2023-04-18T20:50:51.319Z,95780.34
2023-04-18T20:53:21.613Z,95780.97
2023-04-18T20:55:51.351Z,95780.53
2023-04-18T20:58:19.797Z,95784.91
2023-04-18T21:00:48.342Z,95781.16
2023-04-18T21:03:17.400Z,95783.44
2023-04-18T21:05:46.169Z,95781.91
2023-04-18T21:08:14.098Z,95785.09
2023-04-18T21:10:42.072Z,95780.00
2023-04-18T21:13:12.492Z,95788.63
2023-04-18T21:15:41.982Z,95784.25
2023-04-18T21:18:10.087Z,95783.44
2023-04-18T21:20:38.072Z,95785.03
2023-04-18T21:23:06.151Z,95784.25
2023-04-18T21:25:34.183Z,95788.91
2023-04-18T21:28:02.358Z,95784.88
2023-04-18T21:30:31.929Z,95784.47
2023-04-18T21:32:59.885Z,95795.72
2023-04-18T21:35:29.684Z,95791.84
2023-04-18T21:37:58.870Z,95792.41
2023-04-18T21:40:30.772Z,95783.72
2023-04-18T21:42:58.725Z,95783.31
2023-04-18T21:45:27.064Z,95787.31
2023-04-18T21:47:56.477Z,95777.59
2023-04-18T21:50:24.792Z,95787.53
2023-04-18T21:52:52.739Z,95779.06
2023-04-18T21:55:20.832Z,95786.22
2023-04-18T21:57:48.803Z,95785.47
2023-04-18T22:00:18.558Z,95787.66
2023-04-18T22:02:47.065Z,95783.59
2023-04-18T22:05:17.812Z,95783.78
2023-04-18T22:07:57.292Z,95784.09
2023-04-18T22:10:26.960Z,95784.88
2023-04-18T22:12:55.996Z,95784.31
2023-04-18T22:15:27.117Z,95782.25
2023-04-18T22:17:56.037Z,95783.66
2023-04-18T22:20:27.194Z,95776.78
2023-04-18T22:22:55.750Z,95774.81
2023-04-18T22:25:23.796Z,95780.38
2023-04-18T22:27:51.885Z,95767.66
2023-04-18T22:30:20.449Z,95766.84
2023-04-18T22:32:49.255Z,95774.78
2023-04-18T22:35:17.724Z,95770.13
2023-04-18T22:37:47.531Z,95775.59
2023-04-18T22:40:16.545Z,95775.97
2023-04-18T22:42:44.832Z,95772.91
2023-04-18T22:45:13.801Z,95768.22
2023-04-18T22:47:42.036Z,95775.19
2023-04-18T22:50:11.253Z,95773.41
2023-04-18T22:52:39.480Z,95766.69
2023-04-18T22:55:10.204Z,95770.13
2023-04-18T22:57:39.709Z,95772.97
2023-04-18T23:00:10.292Z,95768.72
2023-04-18T23:02:38.585Z,95771.03
2023-04-18T23:05:08.199Z,95775.72
2023-04-18T23:07:36.599Z,95769.88
2023-04-18T23:10:06.625Z,95772.34
2023-04-18T23:12:36.305Z,95776.78
2023-04-18T23:15:04.963Z,95769.06
2023-04-18T23:17:34.860Z,95771.31
2023-04-18T23:20:03.805Z,95760.75
2023-04-18T23:22:32.660Z,95770.91
2023-04-18T23:25:00.944Z,95759.66
2023-04-18T23:27:29.495Z,95768.13
2023-04-18T23:29:59.058Z,95759.22
2023-04-18T23:32:27.321Z,95761.03
2023-04-18T23:34:55.669Z,95761.03
2023-04-18T23:37:23.966Z,95765.25
2023-04-18T23:39:52.325Z,95760.22
2023-04-18T23:42:20.278Z,95769.13
2023-04-18T23:44:49.901Z,95755.56
2023-04-18T23:47:20.833Z,95755.38
2023-04-18T23:49:49.351Z,95758.47
2023-04-18T23:52:17.522Z,95753.22
2023-04-18T23:54:45.798Z,95747.97
2023-04-18T23:57:13.980Z,95749.34
2023-04-18T23:59:42.218Z,95740.66
